Time;durP1;ratioP1;P1;durP2;ratioP2;P2;SDS_P1;SDS_P2;PMS_P1;PMS_P2;Temp;Humidity;BMP_temperature;BMP_pressure;BME280_temperature;BME280_humidity;BME280_pressure;Samples;Min_cycle;Max_cycle;Signal;HPM_P1;HPM_P2
2021/12/19 00:01:57;;;;;;;0.15;0.15;;;4.00;99.90;;;;;;4973040;28;20027;-70
2021/12/19 00:09:28;;;;;;;0.10;0.10;;;4.10;99.90;;;;;;4968897;28;20041;-70
2021/12/19 00:11:54;;;;;;;0.10;0.10;;;4.10;99.90;;;;;;4968523;28;20033;-71
2021/12/19 00:14:23;;;;;;;2.08;1.95;;;4.20;99.90;;;;;;4968014;28;20031;-69
2021/12/19 00:16:51;;;;;;;0.50;0.50;;;4.20;99.90;;;;;;4971302;28;20038;-70
2021/12/19 00:19:18;;;;;;;1.63;1.52;;;4.20;99.90;;;;;;4969334;28;20034;-70
2021/12/19 00:21:44;;;;;;;0.10;0.10;;;4.20;99.90;;;;;;4969438;28;20022;-70
2021/12/19 00:24:10;;;;;;;0.10;0.10;;;4.00;99.90;;;;;;4968433;28;20420;-70
2021/12/19 00:26:37;;;;;;;0.10;0.10;;;4.00;99.90;;;;;;4971136;28;20050;-68
2021/12/19 00:29:03;;;;;;;0.10;0.10;;;3.90;99.90;;;;;;4970164;28;20033;-69
2021/12/19 00:31:30;;;;;;;5.28;2.15;;;3.80;99.90;;;;;;4972824;28;20101;-69
2021/12/19 00:33:56;;;;;;;0.20;0.20;;;3.80;99.90;;;;;;4972371;28;20027;-69
2021/12/19 00:36:22;;;;;;;0.73;0.73;;;3.70;99.90;;;;;;4973004;28;20039;-70
2021/12/19 00:38:48;;;;;;;0.20;0.20;;;3.70;99.90;;;;;;4969774;28;20030;-70
2021/12/19 00:41:14;;;;;;;0.10;0.10;;;3.50;99.90;;;;;;4973056;28;20555;-69
2021/12/19 00:46:09;;;;;;;0.10;0.10;;;3.70;99.90;;;;;;4972822;28;20041;-69
2021/12/19 00:48:37;;;;;;;0.10;0.10;;;3.80;99.90;;;;;;4971470;28;20054;-69
2021/12/19 00:51:05;;;;;;;2.95;2.58;;;3.90;99.90;;;;;;4972253;28;20034;-69
2021/12/19 00:53:30;;;;;;;0.10;0.10;;;3.90;99.90;;;;;;4972312;28;20027;-69
2021/12/19 00:55:56;;;;;;;0.10;0.10;;;3.80;99.90;;;;;;4971496;28;20125;-70
2021/12/19 00:58:22;;;;;;;0.55;0.55;;;3.80;99.90;;;;;;4972866;28;20042;-69
2021/12/19 01:00:48;;;;;;;0.30;0.30;;;3.70;99.90;;;;;;4973708;28;20026;-70
2021/12/19 01:03:14;;;;;;;3.53;3.22;;;3.70;99.90;;;;;;4970607;28;20031;-70
2021/12/19 01:05:41;;;;;;;0.47;0.47;;;3.70;99.90;;;;;;4973591;28;20035;-70
2021/12/19 01:08:07;;;;;;;0.10;0.10;;;3.50;99.90;;;;;;4969471;28;20098;-69
2021/12/19 01:10:35;;;;;;;3.35;3.03;;;3.70;99.90;;;;;;4968823;28;20022;-70
2021/12/19 01:13:02;;;;;;;0.10;0.10;;;3.80;99.90;;;;;;4972167;28;20140;-70
2021/12/19 01:15:28;;;;;;;2.15;2.05;;;3.90;99.90;;;;;;4973641;28;20035;-70
2021/12/19 01:17:54;;;;;;;0.45;0.45;;;3.80;99.90;;;;;;4970527;28;20102;-69
2021/12/19 01:20:26;;;;;;;2.53;2.38;;;3.80;99.90;;;;;;4972006;28;20027;-70
2021/12/19 01:22:52;;;;;;;0.20;0.20;;;3.80;99.90;;;;;;4972107;28;20540;-70
2021/12/19 01:25:18;;;;;;;0.45;0.45;;;3.80;99.90;;;;;;4972192;28;20138;-69
2021/12/19 01:27:44;;;;;;;0.10;0.10;;;3.80;99.90;;;;;;4972233;28;20086;-69
2021/12/19 01:30:11;;;;;;;1.38;1.38;;;3.90;99.90;;;;;;4971870;28;20034;-68
2021/12/19 01:32:37;;;;;;;0.55;0.55;;;3.90;99.90;;;;;;4971199;28;20102;-69
2021/12/19 01:35:04;;;;;;;2.53;2.33;;;3.80;99.90;;;;;;4975377;28;20081;-69
2021/12/19 01:37:30;;;;;;;0.20;0.20;;;3.80;99.90;;;;;;4971111;28;20444;-69
2021/12/19 01:39:56;;;;;;;0.10;0.10;;;3.80;99.90;;;;;;4970749;28;20062;-70
2021/12/19 01:42:28;;;;;;;0.10;0.10;;;3.80;99.90;;;;;;4970727;28;20109;-70
2021/12/19 01:44:54;;;;;;;0.10;0.10;;;3.80;99.90;;;;;;4972832;28;20049;-72
2021/12/19 01:47:21;;;;;;;0.10;0.10;;;3.80;99.90;;;;;;4971445;28;20285;-70
2021/12/19 01:49:46;;;;;;;0.10;0.10;;;3.80;99.90;;;;;;4987403;28;20042;-70
2021/12/19 01:52:12;;;;;;;0.40;0.40;;;3.90;99.90;;;;;;4982850;28;20041;-69
2021/12/19 01:54:37;;;;;;;0.10;0.10;;;3.90;99.90;;;;;;4974393;28;20035;-70
2021/12/19 01:57:03;;;;;;;1.23;0.85;;;3.70;99.90;;;;;;4969597;28;20034;-69
2021/12/19 01:59:29;;;;;;;0.38;0.38;;;3.60;99.90;;;;;;4974050;28;20531;-70
2021/12/19 02:01:56;;;;;;;0.10;0.10;;;3.60;99.90;;;;;;4975959;28;20038;-69
2021/12/19 02:04:23;;;;;;;0.10;0.10;;;3.60;99.90;;;;;;4971460;28;20035;-70
2021/12/19 02:06:49;;;;;;;0.40;0.40;;;3.60;99.90;;;;;;4972822;28;20027;-69
2021/12/19 02:09:16;;;;;;;0.20;0.20;;;3.70;99.90;;;;;;4972278;28;20114;-68
2021/12/19 02:11:42;;;;;;;0.10;0.10;;;3.70;99.90;;;;;;4972213;28;20066;-69
2021/12/19 02:14:09;;;;;;;0.10;0.10;;;3.70;99.90;;;;;;4967517;28;20033;-69
2021/12/19 02:16:37;;;;;;;0.32;0.32;;;3.60;99.90;;;;;;4971305;28;20406;-70
2021/12/19 02:19:03;;;;;;;0.10;0.10;;;3.70;99.90;;;;;;4976053;28;20118;-70
2021/12/19 02:21:28;;;;;;;0.10;0.10;;;3.60;99.90;;;;;;4970993;28;20046;-69
2021/12/19 02:23:59;;;;;;;0.63;0.60;;;3.70;99.90;;;;;;4971762;28;20031;-69
2021/12/19 02:26:25;;;;;;;0.10;0.10;;;3.70;99.90;;;;;;4977771;28;20027;-70
2021/12/19 02:28:50;;;;;;;0.22;0.22;;;3.60;99.90;;;;;;4977935;28;20039;-69
2021/12/19 02:31:16;;;;;;;0.10;0.10;;;3.60;99.90;;;;;;4980966;28;20041;-70
2021/12/19 02:33:53;;;;;;;0.10;0.10;;;3.60;99.90;;;;;;4975940;28;20086;-68
2021/12/19 02:36:37;;;;;;;0.10;0.10;;;3.70;99.90;;;;;;4974391;28;20074;-70
2021/12/19 02:50:04;;;;;;;0.10;0.10;;;3.50;99.90;;;;;;4968949;28;21552;-69
2021/12/19 02:52:30;;;;;;;0.10;0.10;;;3.50;99.90;;;;;;4970323;28;20062;-69
2021/12/19 02:54:55;;;;;;;0.10;0.10;;;3.50;99.90;;;;;;4969750;28;20068;-69
2021/12/19 02:57:21;;;;;;;0.10;0.10;;;3.50;99.90;;;;;;4971210;28;20098;-68
2021/12/19 02:59:47;;;;;;;0.20;0.20;;;3.70;99.90;;;;;;4962882;28;20453;-70
2021/12/19 03:02:12;;;;;;;0.20;0.20;;;3.60;99.90;;;;;;4972247;28;20393;-71
2021/12/19 03:04:50;;;;;;;0.10;0.10;;;3.40;99.90;;;;;;4971631;28;20035;-70
2021/12/19 03:07:18;;;;;;;0.10;0.10;;;3.40;99.90;;;;;;4962868;28;20461;-69
2021/12/19 03:10:03;;;;;;;0.10;0.10;;;3.40;99.90;;;;;;4969370;28;20504;-69
2021/12/19 03:18:00;;;;;;;0.10;0.10;;;3.50;99.90;;;;;;4971532;28;20085;-70
2021/12/19 03:20:27;;;;;;;0.10;0.10;;;3.30;99.90;;;;;;4968824;28;20027;-69
2021/12/19 03:22:53;;;;;;;0.10;0.10;;;3.00;99.90;;;;;;4962601;28;20105;-70
2021/12/19 03:25:19;;;;;;;0.20;0.20;;;3.40;99.90;;;;;;4971008;28;20493;-69
2021/12/19 03:27:45;;;;;;;0.10;0.10;;;3.40;99.90;;;;;;4968336;28;20468;-69
2021/12/19 03:30:11;;;;;;;0.17;0.17;;;3.30;99.90;;;;;;4969008;28;20031;-69
2021/12/19 03:32:36;;;;;;;3.42;2.45;;;3.40;99.90;;;;;;4966908;28;20034;-69
2021/12/19 03:35:03;;;;;;;0.20;0.20;;;3.40;99.90;;;;;;4971023;28;20082;-69
2021/12/19 03:37:29;;;;;;;0.10;0.10;;;3.40;99.90;;;;;;4970824;28;20114;-69
2021/12/19 03:40:08;;;;;;;0.10;0.10;;;4.00;99.90;;;;;;4969619;28;20101;-69
2021/12/19 03:42:39;;;;;;;0.10;0.10;;;3.30;99.90;;;;;;4970034;28;20039;-71
2021/12/19 03:45:07;;;;;;;0.28;0.28;;;3.70;99.90;;;;;;4966863;28;20117;-70
2021/12/19 03:47:34;;;;;;;0.10;0.10;;;3.30;99.90;;;;;;4968433;28;20061;-68
2021/12/19 03:50:01;;;;;;;1.77;1.65;;;3.40;99.90;;;;;;4966167;28;20100;-68
2021/12/19 03:52:27;;;;;;;0.10;0.10;;;3.40;99.90;;;;;;4971125;28;20086;-69
2021/12/19 03:54:52;;;;;;;1.40;1.40;;;3.30;99.90;;;;;;4970410;28;20018;-69
2021/12/19 03:57:18;;;;;;;0.10;0.10;;;3.40;99.90;;;;;;4969506;28;20417;-69
2021/12/19 03:59:47;;;;;;;0.20;0.20;;;3.40;99.90;;;;;;4964580;28;20038;-70
2021/12/19 04:02:13;;;;;;;0.60;0.60;;;3.40;99.90;;;;;;4969660;28;20122;-70
2021/12/19 04:04:39;;;;;;;0.10;0.10;;;3.40;99.90;;;;;;4973402;28;20501;-69
2021/12/19 04:07:05;;;;;;;0.10;0.10;;;3.40;99.90;;;;;;4969822;28;20054;-69
2021/12/19 04:09:31;;;;;;;1.58;1.48;;;3.30;99.90;;;;;;4969645;28;20063;-71
2021/12/19 04:11:56;;;;;;;0.10;0.10;;;3.20;99.90;;;;;;4964986;28;20117;-69
2021/12/19 04:14:23;;;;;;;0.10;0.10;;;3.20;99.90;;;;;;4974360;28;20031;-70
2021/12/19 04:16:48;;;;;;;0.10;0.10;;;3.20;99.90;;;;;;4972071;28;20074;-70
2021/12/19 04:19:14;;;;;;;0.10;0.10;;;3.10;99.90;;;;;;4955258;28;20457;-70
2021/12/19 04:21:40;;;;;;;0.10;0.10;;;3.10;99.90;;;;;;4967880;28;20093;-70
2021/12/19 04:24:06;;;;;;;0.20;0.20;;;3.10;99.90;;;;;;4972697;28;20077;-71
2021/12/19 04:26:32;;;;;;;2.15;1.95;;;3.00;99.90;;;;;;4971885;28;20074;-69
2021/12/19 04:28:58;;;;;;;0.10;0.10;;;3.00;99.90;;;;;;4973788;28;20112;-69
2021/12/19 04:31:24;;;;;;;0.10;0.10;;;3.10;99.90;;;;;;4973456;28;20039;-69
2021/12/19 04:33:49;;;;;;;0.10;0.10;;;3.00;99.90;;;;;;4970916;28;20077;-69
2021/12/19 04:36:23;;;;;;;0.10;0.10;;;3.00;99.90;;;;;;4962838;28;20118;-71
2021/12/19 04:52:51;;;;;;;0.10;0.10;;;2.90;99.90;;;;;;4973141;28;20110;-70
2021/12/19 05:01:12;;;;;;;0.10;0.10;;;3.10;99.90;;;;;;4964368;28;20401;-69
2021/12/19 05:03:50;;;;;;;0.30;0.30;;;3.10;99.90;;;;;;4967238;28;20122;-69
2021/12/19 05:14:04;;;;;;;0.20;0.20;;;3.10;99.90;;;;;;4973515;28;20099;-69
2021/12/19 05:14:40;;;;;;;4.95;4.60;;;3.40;99.90;;;;;;4961858;28;21046;-69
2021/12/19 05:17:10;;;;;;;0.93;0.90;;;3.30;99.90;;;;;;4971301;28;20021;-69
2021/12/19 05:19:50;;;;;;;0.10;0.10;;;3.30;99.90;;;;;;4970506;28;20349;-70
2021/12/19 05:22:17;;;;;;;0.10;0.10;;;3.20;99.90;;;;;;4963688;28;20114;-69
2021/12/19 05:25:00;;;;;;;0.10;0.10;;;3.20;99.90;;;;;;4971923;28;20049;-70
2021/12/19 05:27:26;;;;;;;0.10;0.10;;;3.20;99.90;;;;;;4963070;28;20105;-69
2021/12/19 05:29:52;;;;;;;0.30;0.30;;;3.10;99.90;;;;;;4969959;28;20508;-69
2021/12/19 05:32:18;;;;;;;0.10;0.10;;;3.10;99.90;;;;;;4970408;28;20032;-69
2021/12/19 05:34:43;;;;;;;0.10;0.10;;;3.00;99.90;;;;;;4968748;28;20023;-69
2021/12/19 05:45:21;;;;;;;0.52;0.52;;;3.00;99.90;;;;;;4971444;28;20119;-69
2021/12/19 05:47:49;;;;;;;0.20;0.20;;;2.90;99.90;;;;;;4962162;28;20038;-69
2021/12/19 05:50:17;;;;;;;0.10;0.10;;;2.90;99.90;;;;;;4957160;28;20027;-69
2021/12/19 05:52:45;;;;;;;2.67;2.47;;;2.90;99.90;;;;;;4969422;28;20038;-70
2021/12/19 05:55:11;;;;;;;0.40;0.40;;;2.90;99.90;;;;;;4962261;28;20027;-69
2021/12/19 05:57:36;;;;;;;0.10;0.10;;;2.80;99.90;;;;;;4962917;28;20035;-70
2021/12/19 06:00:09;;;;;;;0.20;0.20;;;2.80;99.90;;;;;;4971214;28;20026;-69
2021/12/19 06:02:35;;;;;;;1.35;1.35;;;2.70;99.90;;;;;;4967283;28;20035;-68
2021/12/19 06:05:02;;;;;;;0.17;0.17;;;2.70;99.90;;;;;;4962105;28;20493;-69
2021/12/19 06:07:27;;;;;;;0.10;0.10;;;2.70;99.90;;;;;;4972603;28;20022;-69
2021/12/19 06:09:53;;;;;;;0.10;0.10;;;2.70;99.90;;;;;;4971121;28;20485;-69
2021/12/19 06:12:18;;;;;;;0.10;0.10;;;2.60;99.90;;;;;;4972041;28;20069;-70
2021/12/19 06:14:44;;;;;;;0.10;0.10;;;2.60;99.90;;;;;;4968502;28;20027;-69
2021/12/19 06:17:10;;;;;;;0.10;0.10;;;2.60;99.90;;;;;;4977492;28;20034;-69
2021/12/19 06:19:36;;;;;;;0.10;0.10;;;2.60;99.90;;;;;;4965829;28;20116;-69
2021/12/19 06:22:04;;;;;;;0.45;0.45;;;2.60;99.90;;;;;;4967828;28;20045;-70
2021/12/19 06:24:31;;;;;;;0.10;0.10;;;2.70;99.90;;;;;;4966066;28;20445;-68
2021/12/19 06:26:56;;;;;;;0.10;0.10;;;2.80;99.90;;;;;;4967042;28;20054;-70
2021/12/19 06:29:22;;;;;;;0.20;0.20;;;2.70;99.90;;;;;;4962429;28;20056;-70
2021/12/19 06:31:48;;;;;;;0.55;0.55;;;2.90;99.90;;;;;;4977356;28;20189;-69
2021/12/19 06:34:13;;;;;;;0.20;0.20;;;2.80;99.90;;;;;;4969237;28;20126;-69
2021/12/19 06:36:40;;;;;;;0.10;0.10;;;2.80;99.90;;;;;;4969716;28;20030;-69
2021/12/19 06:39:06;;;;;;;0.10;0.10;;;2.80;99.90;;;;;;4965068;28;20133;-70
2021/12/19 06:41:33;;;;;;;0.10;0.10;;;2.70;99.90;;;;;;4962629;28;20454;-69
2021/12/19 06:43:59;;;;;;;0.10;0.10;;;2.70;99.90;;;;;;4966730;28;20031;-68
2021/12/19 06:46:24;;;;;;;0.10;0.10;;;2.70;99.90;;;;;;4964990;28;20038;-68
2021/12/19 06:48:50;;;;;;;0.10;0.10;;;2.70;99.90;;;;;;4974545;28;20478;-68
2021/12/19 06:51:16;;;;;;;0.10;0.10;;;2.60;99.90;;;;;;4964022;28;20050;-69
2021/12/19 06:53:42;;;;;;;0.10;0.10;;;2.50;99.90;;;;;;4965877;28;20030;-70
2021/12/19 06:56:08;;;;;;;0.17;0.17;;;2.50;99.90;;;;;;4965191;28;20110;-69
2021/12/19 06:58:34;;;;;;;0.25;0.25;;;2.40;99.90;;;;;;4958815;28;20513;-69
2021/12/19 07:00:59;;;;;;;0.13;0.13;;;2.30;99.90;;;;;;4969773;28;20430;-69
2021/12/19 07:03:25;;;;;;;0.10;0.10;;;2.30;99.90;;;;;;4970334;28;20271;-71
2021/12/19 07:05:51;;;;;;;0.10;0.10;;;2.30;99.90;;;;;;4968931;28;20030;-70
2021/12/19 07:08:17;;;;;;;0.10;0.10;;;2.30;99.90;;;;;;4963689;28;20043;-69
2021/12/19 07:10:43;;;;;;;0.10;0.10;;;2.40;99.90;;;;;;4957656;28;20058;-69
2021/12/19 07:13:09;;;;;;;0.10;0.10;;;2.30;99.90;;;;;;4966254;28;20032;-68
2021/12/19 07:15:35;;;;;;;0.10;0.10;;;2.30;99.90;;;;;;4966331;28;20089;-70
2021/12/19 07:18:06;;;;;;;0.10;0.10;;;2.30;99.90;;;;;;4961549;28;20055;-69
2021/12/19 07:20:32;;;;;;;0.10;0.10;;;2.40;99.90;;;;;;4962694;28;20042;-68
2021/12/19 07:22:57;;;;;;;0.10;0.10;;;2.50;99.90;;;;;;4965976;28;20027;-68
2021/12/19 07:25:23;;;;;;;0.20;0.20;;;2.40;99.90;;;;;;4967953;28;20035;-68
2021/12/19 07:27:49;;;;;;;0.10;0.10;;;2.40;99.90;;;;;;4967799;28;20027;-68
2021/12/19 07:30:14;;;;;;;0.10;0.10;;;2.40;99.90;;;;;;4969709;28;20039;-68
2021/12/19 07:32:40;;;;;;;0.10;0.10;;;2.50;99.90;;;;;;4964636;28;20078;-69
2021/12/19 07:35:10;;;;;;;0.20;0.20;;;2.50;99.90;;;;;;4969760;28;20066;-69
2021/12/19 07:37:37;;;;;;;0.10;0.10;;;2.50;99.90;;;;;;4967589;28;20045;-69
2021/12/19 07:40:15;;;;;;;0.10;0.10;;;2.40;99.90;;;;;;4968262;28;20026;-68
2021/12/19 07:42:42;;;;;;;0.10;0.10;;;2.40;99.90;;;;;;4966381;28;20026;-69
2021/12/19 07:45:10;;;;;;;0.10;0.10;;;2.50;99.90;;;;;;4960491;28;20089;-69
2021/12/19 07:47:39;;;;;;;0.10;0.10;;;2.50;99.90;;;;;;4961450;28;20493;-69
2021/12/19 07:50:07;;;;;;;2.47;2.28;;;2.50;99.90;;;;;;4965321;28;20122;-68
2021/12/19 07:52:33;;;;;;;0.10;0.10;;;2.50;99.90;;;;;;4965391;28;20130;-69
2021/12/19 07:54:58;;;;;;;0.10;0.10;;;2.50;99.90;;;;;;4969044;28;20101;-69
2021/12/19 07:57:24;;;;;;;0.10;0.10;;;2.40;99.90;;;;;;4967884;28;20110;-70
2021/12/19 07:59:50;;;;;;;0.30;0.30;;;2.40;99.90;;;;;;4970237;28;20060;-69
2021/12/19 08:02:16;;;;;;;0.10;0.10;;;2.40;99.90;;;;;;4968662;28;20508;-69
2021/12/19 08:04:42;;;;;;;0.13;0.13;;;2.30;99.90;;;;;;4967447;28;20034;-68
2021/12/19 08:07:16;;;;;;;0.10;0.10;;;2.30;99.90;;;;;;4968270;28;20462;-69
2021/12/19 08:10:01;;;;;;;0.10;0.10;;;2.30;99.90;;;;;;4964554;28;20045;-68
2021/12/19 08:12:27;;;;;;;0.10;0.10;;;2.40;99.90;;;;;;4971160;28;20031;-69
2021/12/19 08:14:52;;;;;;;0.10;0.10;;;2.40;99.90;;;;;;4969536;28;20394;-69
2021/12/19 08:17:18;;;;;;;0.10;0.10;;;2.30;99.90;;;;;;4969296;28;20027;-69
2021/12/19 08:19:44;;;;;;;0.10;0.10;;;2.30;99.90;;;;;;4967741;28;20433;-69
2021/12/19 08:22:13;;;;;;;2.10;1.98;;;2.40;99.90;;;;;;4966899;28;20034;-71
2021/12/19 08:24:39;;;;;;;0.10;0.10;;;2.60;99.90;;;;;;4979672;28;20031;-69
2021/12/19 08:27:04;;;;;;;0.10;0.10;;;2.60;99.90;;;;;;4966455;28;20034;-68
2021/12/19 08:29:30;;;;;;;0.10;0.10;;;2.60;99.90;;;;;;4969900;28;20031;-70
2021/12/19 08:31:56;;;;;;;0.10;0.10;;;2.50;99.90;;;;;;4967272;28;20051;-69
2021/12/19 08:34:21;;;;;;;0.10;0.10;;;2.50;99.90;;;;;;4967190;28;20129;-68
2021/12/19 08:36:47;;;;;;;0.10;0.10;;;2.50;99.90;;;;;;4961938;28;20476;-70
2021/12/19 08:39:14;;;;;;;0.10;0.10;;;2.60;99.90;;;;;;4967844;28;20539;-70
2021/12/19 08:41:40;;;;;;;0.10;0.10;;;2.70;99.90;;;;;;4960257;28;20485;-69
2021/12/19 08:44:06;;;;;;;0.10;0.10;;;2.70;99.90;;;;;;4960808;28;20038;-69
2021/12/19 08:46:35;;;;;;;0.10;0.10;;;2.70;99.90;;;;;;4967171;28;20058;-69
2021/12/19 08:49:04;;;;;;;0.10;0.10;;;2.90;99.90;;;;;;4963025;28;20481;-69
2021/12/19 08:51:31;;;;;;;0.10;0.10;;;2.90;99.90;;;;;;4970986;28;20061;-69
2021/12/19 08:54:00;;;;;;;0.10;0.10;;;2.90;99.90;;;;;;4966517;28;20033;-70
2021/12/19 08:56:26;;;;;;;0.10;0.10;;;2.90;99.90;;;;;;4977385;28;20133;-69
2021/12/19 08:58:52;;;;;;;0.22;0.22;;;2.90;99.90;;;;;;4971274;28;20018;-68
2021/12/19 09:01:18;;;;;;;0.10;0.10;;;2.80;99.90;;;;;;4972948;28;20105;-69
2021/12/19 09:03:43;;;;;;;0.10;0.10;;;2.80;99.90;;;;;;4971389;28;20453;-69
2021/12/19 09:06:09;;;;;;;0.10;0.10;;;2.80;99.90;;;;;;4968826;28;20031;-69
2021/12/19 09:08:35;;;;;;;0.10;0.10;;;2.80;99.90;;;;;;4967966;28;20098;-69
2021/12/19 09:11:00;;;;;;;0.10;0.10;;;2.90;99.90;;;;;;4966886;28;20543;-69
2021/12/19 09:13:26;;;;;;;0.10;0.10;;;2.90;99.90;;;;;;4976202;28;20073;-69
2021/12/19 09:15:52;;;;;;;0.10;0.10;;;2.90;99.90;;;;;;4972086;28;20042;-69
2021/12/19 09:18:19;;;;;;;0.10;0.10;;;2.90;99.90;;;;;;4968415;28;20095;-69
2021/12/19 09:20:44;;;;;;;0.10;0.10;;;3.00;99.90;;;;;;4968605;28;20109;-69
2021/12/19 09:23:11;;;;;;;0.10;0.10;;;3.00;99.90;;;;;;4971879;28;20571;-70
2021/12/19 09:25:38;;;;;;;0.17;0.17;;;3.10;99.90;;;;;;4971444;28;20109;-70
2021/12/19 09:28:04;;;;;;;0.10;0.10;;;3.10;99.90;;;;;;4971777;28;20041;-70
2021/12/19 09:30:31;;;;;;;0.10;0.10;;;3.10;99.90;;;;;;4967599;28;20093;-69
2021/12/19 09:32:56;;;;;;;0.10;0.10;;;3.20;99.90;;;;;;4979076;28;20449;-69
2021/12/19 09:35:23;;;;;;;0.10;0.10;;;3.10;99.90;;;;;;4992302;28;20052;-70
2021/12/19 09:37:49;;;;;;;0.10;0.10;;;3.20;99.90;;;;;;4971412;28;20039;-70
2021/12/19 09:40:24;;;;;;;0.10;0.10;;;3.30;99.90;;;;;;4979543;28;20392;-71
2021/12/19 09:43:01;;;;;;;;;;;3.20;99.90;;;;;;4982545;28;20054;-71
2021/12/19 09:45:28;;;;;;;0.10;0.10;;;3.30;99.90;;;;;;4987982;28;19910;-72
2021/12/19 09:47:54;;;;;;;0.10;0.10;;;3.30;99.90;;;;;;4989894;28;20453;-72
2021/12/19 09:50:20;;;;;;;0.10;0.10;;;3.30;99.90;;;;;;4988019;28;20027;-72
2021/12/19 09:52:47;;;;;;;0.10;0.10;;;3.30;99.90;;;;;;4971067;28;20045;-70
2021/12/19 09:55:18;;;;;;;0.10;0.10;;;3.20;99.90;;;;;;4969101;28;20556;-72
2021/12/19 09:57:44;;;;;;;0.10;0.10;;;3.20;99.90;;;;;;4970649;28;20101;-75
2021/12/19 10:00:10;;;;;;;0.10;0.10;;;3.30;99.90;;;;;;4967583;28;20023;-71
2021/12/19 10:02:36;;;;;;;0.10;0.10;;;3.30;99.90;;;;;;4968244;28;20085;-72
2021/12/19 10:05:17;;;;;;;0.10;0.10;;;3.30;99.90;;;;;;4971440;28;20027;-72
2021/12/19 10:07:50;;;;;;;0.10;0.10;;;3.30;99.90;;;;;;4972515;28;20138;-73
2021/12/19 10:10:24;;;;;;;0.10;0.10;;;3.40;99.90;;;;;;4967309;28;20031;-74
2021/12/19 10:12:58;;;;;;;0.10;0.10;;;3.50;99.90;;;;;;4970153;28;20285;-71
2021/12/19 10:15:35;;;;;;;0.10;0.10;;;3.50;99.90;;;;;;4970366;28;20022;-73
2021/12/19 10:18:15;;;;;;;0.10;0.10;;;3.40;99.90;;;;;;4963609;28;20027;-72
2021/12/19 10:20:45;;;;;;;0.10;0.10;;;3.40;99.90;;;;;;4969221;28;20446;-73
2021/12/19 10:23:16;;;;;;;0.10;0.10;;;3.40;99.90;;;;;;4968108;28;20540;-71
2021/12/19 10:25:42;;;;;;;0.10;0.10;;;3.50;99.90;;;;;;4970703;28;20159;-74
2021/12/19 10:28:09;;;;;;;0.10;0.10;;;3.50;99.90;;;;;;4970944;28;20528;-72
2021/12/19 10:30:46;;;;;;;0.35;0.35;;;3.60;99.90;;;;;;4969523;28;20129;-71
2021/12/19 10:33:19;;;;;;;0.10;0.10;;;3.40;99.90;;;;;;4967967;28;20019;-73
2021/12/19 10:35:50;;;;;;;0.10;0.10;;;3.40;99.90;;;;;;4969249;28;20503;-71
2021/12/19 10:38:24;;;;;;;0.10;0.10;;;3.40;99.90;;;;;;4971814;28;20054;-73
2021/12/19 10:40:52;;;;;;;0.30;0.30;;;3.50;99.90;;;;;;4974793;28;20027;-72
2021/12/19 10:43:19;;;;;;;0.75;0.75;;;3.60;99.90;;;;;;4970441;28;20481;-71
2021/12/19 10:45:51;;;;;;;0.10;0.10;;;3.70;99.90;;;;;;4952542;28;20039;-71
2021/12/19 10:48:22;;;;;;;0.10;0.10;;;3.80;99.90;;;;;;4952531;28;20035;-71
2021/12/19 10:50:58;;;;;;;0.10;0.10;;;3.70;99.90;;;;;;4960333;28;20027;-72
2021/12/19 10:53:36;;;;;;;0.10;0.10;;;3.70;99.90;;;;;;4966364;28;20041;-70
2021/12/19 10:56:24;;;;;;;0.10;0.10;;;3.80;99.90;;;;;;4973267;28;20023;-70
2021/12/19 10:58:56;;;;;;;0.10;0.10;;;3.80;99.90;;;;;;4984741;28;20023;-71
2021/12/19 11:01:29;;;;;;;0.10;0.10;;;3.70;99.90;;;;;;4964033;28;20042;-70
2021/12/19 11:04:11;;;;;;;0.10;0.10;;;3.70;99.90;;;;;;4972354;28;20038;-70
2021/12/19 11:06:37;;;;;;;0.10;0.10;;;3.70;99.90;;;;;;4971715;28;20109;-72
2021/12/19 11:09:10;;;;;;;0.10;0.10;;;3.70;99.90;;;;;;4966958;28;20059;-72
2021/12/19 11:11:48;;;;;;;0.10;0.10;;;3.80;99.90;;;;;;4962680;28;20039;-72
2021/12/19 11:14:37;;;;;;;0.10;0.10;;;3.80;99.90;;;;;;4966352;28;20047;-73
2021/12/19 11:17:07;;;;;;;0.10;0.10;;;3.80;99.90;;;;;;4966987;28;20023;-72
2021/12/19 11:19:33;;;;;;;0.10;0.10;;;3.70;99.90;;;;;;4952173;28;20489;-71
2021/12/19 11:21:59;;;;;;;0.10;0.10;;;3.60;99.90;;;;;;4968838;28;20054;-71
2021/12/19 11:24:26;;;;;;;0.10;0.10;;;3.50;99.90;;;;;;4971187;28;20034;-72
2021/12/19 11:26:54;;;;;;;0.10;0.10;;;3.70;99.90;;;;;;4968174;28;20034;-72
2021/12/19 11:29:20;;;;;;;0.10;0.10;;;3.90;99.90;;;;;;4969280;28;20034;-70
2021/12/19 11:31:51;;;;;;;0.10;0.10;;;4.00;99.90;;;;;;4969307;28;20025;-71
2021/12/19 11:34:24;;;;;;;0.10;0.10;;;4.00;99.90;;;;;;4971008;28;20023;-71
2021/12/19 11:36:59;;;;;;;;;;;4.00;99.90;;;;;;4959662;28;20031;-72
2021/12/19 11:39:27;;;;;;;0.10;0.10;;;3.90;99.90;;;;;;4955330;28;19910;-72
2021/12/19 11:42:10;;;;;;;0.10;0.10;;;3.80;99.90;;;;;;4990660;28;20091;-72
2021/12/19 11:44:46;;;;;;;0.10;0.10;;;3.80;99.90;;;;;;4971081;28;20050;-72
2021/12/19 11:47:15;;;;;;;0.28;0.28;;;3.90;99.90;;;;;;4970905;28;20031;-71
2021/12/19 11:49:41;;;;;;;0.10;0.10;;;3.80;99.90;;;;;;4970360;28;20029;-71
2021/12/19 11:52:30;;;;;;;0.10;0.10;;;3.80;99.90;;;;;;4985768;28;20019;-72
2021/12/19 11:55:14;;;;;;;0.10;0.10;;;3.80;99.90;;;;;;4969525;28;20030;-74
2021/12/19 11:57:41;;;;;;;0.10;0.10;;;3.70;99.90;;;;;;4970737;28;20073;-72
2021/12/19 12:00:30;;;;;;;0.10;0.10;;;3.70;99.90;;;;;;4967736;28;20105;-71
2021/12/19 12:03:14;;;;;;;0.10;0.10;;;3.70;99.90;;;;;;4967483;28;20038;-70
2021/12/19 12:05:45;;;;;;;0.10;0.10;;;3.70;99.90;;;;;;4968964;28;20033;-70
2021/12/19 12:08:13;;;;;;;0.10;0.10;;;3.70;99.90;;;;;;4968593;28;20117;-69
2021/12/19 12:10:51;;;;;;;0.10;0.10;;;3.80;99.90;;;;;;4966006;28;20027;-69
2021/12/19 12:13:23;;;;;;;0.10;0.10;;;3.70;99.90;;;;;;4961921;28;20023;-70
2021/12/19 12:15:52;;;;;;;0.10;0.10;;;3.70;99.90;;;;;;4970067;28;20035;-69
2021/12/19 12:18:44;;;;;;;0.10;0.10;;;3.70;99.90;;;;;;4968983;28;20358;-69
2021/12/19 12:21:40;;;;;;;0.95;0.63;;;3.60;99.90;;;;;;4964545;28;20105;-69
2021/12/19 12:24:11;;;;;;;0.10;0.10;;;3.50;99.90;;;;;;4966192;28;20039;-70
2021/12/19 12:26:59;;;;;;;0.10;0.10;;;3.60;99.90;;;;;;4972719;28;20062;-69
2021/12/19 12:29:25;;;;;;;0.17;0.17;;;3.60;99.90;;;;;;4966952;28;20053;-70
2021/12/19 12:31:53;;;;;;;0.10;0.10;;;3.50;99.90;;;;;;4971537;28;20451;-71
2021/12/19 12:34:20;;;;;;;0.10;0.10;;;3.60;99.90;;;;;;4972014;28;20031;-71
2021/12/19 12:36:46;;;;;;;0.10;0.10;;;3.60;99.90;;;;;;4973067;28;20553;-68
2021/12/19 12:39:17;;;;;;;0.10;0.10;;;3.60;99.90;;;;;;4972944;28;20035;-70
2021/12/19 12:41:59;;;;;;;0.10;0.10;;;3.70;99.90;;;;;;4965078;28;20446;-71
2021/12/19 12:44:26;;;;;;;0.10;0.10;;;3.70;99.90;;;;;;4969148;28;20049;-69
2021/12/19 12:46:51;;;;;;;0.20;0.20;;;3.60;99.90;;;;;;4973700;28;20037;-69
2021/12/19 12:49:19;;;;;;;0.63;0.63;;;3.70;99.90;;;;;;4973423;28;20027;-69
2021/12/19 12:51:59;;;;;;;0.10;0.10;;;3.80;99.90;;;;;;4954769;28;20035;-70
2021/12/19 12:54:30;;;;;;;0.10;0.10;;;3.80;99.90;;;;;;4954094;28;20038;-69
2021/12/19 12:56:58;;;;;;;0.10;0.10;;;3.80;99.90;;;;;;4954761;28;20028;-72
2021/12/19 12:59:33;;;;;;;2.05;1.55;;;3.70;99.90;;;;;;4953480;28;20090;-71
2021/12/19 13:02:14;;;;;;;0.10;0.10;;;3.70;99.90;;;;;;4957921;28;20106;-69
2021/12/19 13:04:43;;;;;;;0.10;0.10;;;3.60;99.90;;;;;;4971877;28;20393;-69
2021/12/19 13:07:23;;;;;;;0.10;0.10;;;3.70;99.90;;;;;;4972516;28;20035;-71
2021/12/19 13:10:00;;;;;;;0.10;0.10;;;3.60;99.90;;;;;;4969075;28;20034;-74
2021/12/19 13:12:29;;;;;;;0.10;0.10;;;3.70;99.90;;;;;;4970493;28;20177;-71
2021/12/19 13:14:56;;;;;;;0.10;0.10;;;3.70;99.90;;;;;;4971817;28;20030;-73
2021/12/19 13:17:25;;;;;;;0.10;0.10;;;3.60;99.90;;;;;;4972069;28;20046;-71
2021/12/19 13:20:11;;;;;;;0.10;0.10;;;3.70;99.90;;;;;;4971993;28;20031;-72
2021/12/19 13:22:48;;;;;;;0.10;0.10;;;3.60;99.90;;;;;;4973353;28;20059;-72
2021/12/19 13:25:19;;;;;;;0.10;0.10;;;3.70;99.90;;;;;;4973239;28;20111;-72
2021/12/19 13:27:53;;;;;;;0.10;0.10;;;3.50;99.90;;;;;;4956693;28;20342;-74
2021/12/19 13:30:30;;;;;;;0.20;0.20;;;3.50;99.90;;;;;;4951842;28;20042;-72
2021/12/19 13:32:58;;;;;;;0.10;0.10;;;3.40;99.90;;;;;;4959897;28;20026;-74
2021/12/19 13:35:31;;;;;;;0.10;0.10;;;3.50;99.90;;;;;;4966705;28;20022;-74
2021/12/19 13:38:04;;;;;;;;;;;3.50;99.90;;;;;;4973188;28;20569;-73
2021/12/19 13:40:52;;;;;;;0.10;0.10;;;3.50;99.90;;;;;;4972648;28;19910;-72
2021/12/19 13:43:25;;;;;;;0.10;0.10;;;3.50;99.90;;;;;;4972734;28;20058;-73
2021/12/19 13:45:52;;;;;;;0.10;0.10;;;3.70;99.90;;;;;;4969128;28;20027;-73
2021/12/19 13:48:27;;;;;;;2.33;2.20;;;3.70;99.90;;;;;;4972518;28;20065;-73
2021/12/19 13:50:58;;;;;;;0.10;0.10;;;3.70;99.90;;;;;;4977842;28;20030;-73
2021/12/19 13:53:26;;;;;;;0.10;0.10;;;3.60;99.90;;;;;;4970985;28;20054;-71
2021/12/19 13:55:57;;;;;;;0.10;0.10;;;3.50;99.90;;;;;;4980233;28;20519;-72
2021/12/19 13:58:28;;;;;;;0.10;0.10;;;3.40;99.90;;;;;;4975265;28;20176;-72
2021/12/19 14:00:54;;;;;;;0.10;0.10;;;3.40;99.90;;;;;;4980234;28;20023;-73
2021/12/19 14:03:39;;;;;;;0.10;0.10;;;3.40;99.90;;;;;;4980109;28;20041;-71
2021/12/19 14:06:05;;;;;;;0.10;0.10;;;3.50;99.90;;;;;;4978316;28;20034;-72